DW4559 Terryville NY US current weather conditions

sailwx.info

Wind from 277 at 4 knots gusting 10

Air temperature 3.9° C
Dewpoint -2.5° C

Last reported at 2019-Dec-05 22:04 UTC.
Time now 2019-Dec-05 22:30 UTC

Location: N 40°54' W 073°03'.
View on Google Maps.

See reports from other nearby stations

  
Tides and Currents Weather Stations Pressure Air Temp Water Temp Dewpoint Dewpoint Depression Visibility Wind Speed Wind Dir Waves Ship Positions
date/time (UTC)wind fromknots sea level pressurealtimeterstation pressurevisibilityair tempwater tempwave heightnotes
2019-Dec-05 22:09 310 7 gusting 13 3.9
2019-Dec-05 22:04 277 4 gusting 10 3.9
2019-Dec-05 21:59 291 4 gusting 12 3.9
2019-Dec-05 21:54 308 5 gusting 10 3.9
2019-Dec-05 21:49 307 7 gusting 15 3.9
2019-Dec-05 21:44 351 5 gusting 11 3.9
2019-Dec-05 21:39 312 6 gusting 11 3.9
2019-Dec-05 21:34 308 8 gusting 17 3.9
2019-Dec-05 21:29 335 6 gusting 13 3.9
2019-Dec-05 21:24 307 6 gusting 8 4.4
2019-Dec-05 21:19 303 7 gusting 15 4.4
2019-Dec-05 21:14 298 8 gusting 15 3.9
2019-Dec-05 21:09 274 7 gusting 19 3.9
2019-Dec-05 21:04 287 8 gusting 13 4.4
2019-Dec-05 20:59 303 6 gusting 11 4.4
2019-Dec-05 20:54 308 7 gusting 15 4.4
2019-Dec-05 20:49 315 6 gusting 13 4.4
2019-Dec-05 20:44 291 6 gusting 15 4.4
2019-Dec-05 20:39 307 6 gusting 17 4.4
2019-Dec-05 20:34 298 5 gusting 11 4.4
2019-Dec-05 20:29 294 5 gusting 11 4.4
2019-Dec-05 20:24 291 8 gusting 15 4.4
2019-Dec-05 20:19 309 7 gusting 17 5.0
2019-Dec-05 20:14 315 6 gusting 13 5.0
2019-Dec-05 20:09 289 5 gusting 13 5.0
2019-Dec-05 20:04 300 6 gusting 11 5.0
2019-Dec-05 19:59 298 5 gusting 13 5.0
2019-Dec-05 19:54 286 5 gusting 11 5.0
2019-Dec-05 19:49 318 4 gusting 10 5.0
2019-Dec-05 19:44 301 5 gusting 13 5.0
2019-Dec-05 19:39 295 6 gusting 10 5.0
2019-Dec-05 19:34 290 5 gusting 12 5.0
2019-Dec-05 19:29 326 8 gusting 19 5.6
2019-Dec-05 19:24 318 8 gusting 19 5.6
2019-Dec-05 19:19 313 7 gusting 12 5.6
2019-Dec-05 19:14 290 6 gusting 17 5.0
2019-Dec-05 19:09 291 6 gusting 12 5.6
2019-Dec-05 19:04 301 6 gusting 11 5.6
2019-Dec-05 18:59 299 7 gusting 15 5.6
2019-Dec-05 18:54 326 8 gusting 17 5.6
2019-Dec-05 18:49 312 10 gusting 17 5.6
2019-Dec-05 18:44 290 5 gusting 13 5.6
2019-Dec-05 18:39 341 6 gusting 19 5.6
2019-Dec-05 18:34 301 6 gusting 12 5.6
2019-Dec-05 18:29 328 6 gusting 17 5.6
2019-Dec-05 18:24 317 6 gusting 13 5.6
2019-Dec-05 18:19 280 8 gusting 17 5.0
2019-Dec-05 18:14 295 6 gusting 12 5.0
2019-Dec-05 18:09 312 6 gusting 13 5.6
2019-Dec-05 18:04 293 9 gusting 19 5.6
2019-Dec-05 17:59 180 5 gusting 10 5.6
2019-Dec-05 17:54 305 10 gusting 19 5.0
2019-Dec-05 17:49 282 6 gusting 12 5.6
2019-Dec-05 17:44 303 8 gusting 19 5.0
2019-Dec-05 17:39 321 8 gusting 19 5.0
2019-Dec-05 17:34 319 8 gusting 15 5.6
2019-Dec-05 17:29 295 11 gusting 17 5.6
2019-Dec-05 17:24 291 11 gusting 17 5.6
2019-Dec-05 17:19 303 10 gusting 22 5.6
2019-Dec-05 17:14 321 7 gusting 19 5.6
2019-Dec-05 17:09 326 7 gusting 18 5.6
2019-Dec-05 17:04 328 7 gusting 21 5.6
2019-Dec-05 16:59 318 9 gusting 17 5.6
2019-Dec-05 16:54 315 7 gusting 15 5.6
2019-Dec-05 16:49 285 6 gusting 20 5.6
2019-Dec-05 16:44 292 8 gusting 15 5.6
2019-Dec-05 16:39 315 6 gusting 17 5.6
2019-Dec-05 16:34 284 7 gusting 17 5.6
2019-Dec-05 16:29 294 6 gusting 17 6.1
2019-Dec-05 16:24 298 6 gusting 13 6.1
2019-Dec-05 16:19 349 7 gusting 17 6.1
2019-Dec-05 16:14 322 6 gusting 13 6.1
2019-Dec-05 16:09 275 6 gusting 21 6.1
2019-Dec-05 16:04 299 7 gusting 18 5.6
2019-Dec-05 15:59 297 11 gusting 19 5.6
2019-Dec-05 15:54 290 7 gusting 15 5.6
2019-Dec-05 15:49 275 5 gusting 10 5.6
2019-Dec-05 15:44 285 7 gusting 15 5.6
2019-Dec-05 15:39 274 6 gusting 11 5.6
2019-Dec-05 15:34 296 6 gusting 15 5.6
2019-Dec-05 15:29 285 6 gusting 12 5.6
2019-Dec-05 15:24 306 6 gusting 17 5.6
2019-Dec-05 15:19 308 6 gusting 15 5.6
2019-Dec-05 15:14 295 8 gusting 13 5.6
2019-Dec-05 15:09 301 4 gusting 11 5.6
2019-Dec-05 15:04 304 6 gusting 13 5.6
2019-Dec-05 14:59 304 6 gusting 13 5.0
2019-Dec-05 14:54 285 8 gusting 19 5.0
2019-Dec-05 14:49 285 7 gusting 15 5.0
2019-Dec-05 14:44 286 7 gusting 13 5.0
2019-Dec-05 14:39 311 5 gusting 12 5.0
2019-Dec-05 14:34 311 6 gusting 12 5.0
2019-Dec-05 14:29 287 5 gusting 12 5.0
2019-Dec-05 14:24 286 7 gusting 18 5.0
2019-Dec-05 14:19 301 7 gusting 17 5.0
2019-Dec-05 14:14 310 8 gusting 15 5.0
2019-Dec-05 14:09 286 6 gusting 13 5.0
2019-Dec-05 14:04 304 7 gusting 17 5.0
2019-Dec-05 13:59 319 7 gusting 15 5.0
2019-Dec-05 13:54 283 4 gusting 11 4.4
2019-Dec-05 13:49 315 6 gusting 13 4.4
2019-Dec-05 13:44 297 7 gusting 13 4.4
2019-Dec-05 13:39 302 5 gusting 11 4.4
2019-Dec-05 13:34 314 5 gusting 10 4.4
2019-Dec-05 13:29 309 6 gusting 10 4.4
2019-Dec-05 13:24 304 5 gusting 10 4.4
2019-Dec-05 13:19 304 5 gusting 10 3.9
2019-Dec-05 13:14 294 6 gusting 13 3.9
2019-Dec-05 13:09 300 4 gusting 10 3.9
2019-Dec-05 13:04 282 4 gusting 10 3.3
2019-Dec-05 12:59 295 4 gusting 7 3.3
2019-Dec-05 12:54 294 2 gusting 6 3.3
2019-Dec-05 12:49 296 1 gusting 7 3.3
2019-Dec-05 12:44 292 4 gusting 8 3.3
2019-Dec-05 12:39 293 2 gusting 6 3.3
2019-Dec-05 12:34 302 2 gusting 6 3.9
2019-Dec-05 12:29 298 4 gusting 8 3.3
2019-Dec-05 12:24 292 4 gusting 8 3.3
2019-Dec-05 12:19 308 5 gusting 7 3.3
2019-Dec-05 12:14 297 5 gusting 10 3.3
2019-Dec-05 12:09 291 4 gusting 10 3.3
2019-Dec-05 12:04 304 4 gusting 6 3.3
2019-Dec-05 11:59 304 2 gusting 6 3.3
2019-Dec-05 11:54 305 3 gusting 6 3.3
2019-Dec-05 11:49 304 1 gusting 4 3.3
2019-Dec-05 11:44 304 2 gusting 6 3.3
2019-Dec-05 11:39 300 2 gusting 10 3.3
2019-Dec-05 11:34 297 1 gusting 5 3.3
2019-Dec-05 11:29 296 2 gusting 7 3.3
2019-Dec-05 11:24 292 5 gusting 8 3.3
2019-Dec-05 11:19 320 4 gusting 7 3.3
2019-Dec-05 11:14 306 4 gusting 6 3.3
2019-Dec-05 11:09 320 4 gusting 8 3.3
2019-Dec-05 11:04 301 5 gusting 10 3.3
2019-Dec-05 10:59 294 3 gusting 12 3.3
2019-Dec-05 10:54 312 4 gusting 10 3.3
2019-Dec-05 10:49 303 6 gusting 10 3.3
2019-Dec-05 10:44 285 4 gusting 11 2.8
2019-Dec-05 10:39 293 4 gusting 7 2.8
2019-Dec-05 10:34 292 4 gusting 6 2.8
2019-Dec-05 10:29 294 2 gusting 8 2.8
2019-Dec-05 10:24 307 3 gusting 8 2.8
2019-Dec-05 10:19 305 3 gusting 8 2.8
2019-Dec-05 10:14 316 4 gusting 10 2.2
2019-Dec-05 10:09 297 1 gusting 6 2.2
2019-Dec-05 10:04 286 2 gusting 7 1.7
2019-Dec-05 09:59 288 1.7
2019-Dec-05 09:54 288 1.7
2019-Dec-05 09:49 288 0 gusting 4 1.7
2019-Dec-05 09:44 288 1 gusting 5 1.7
2019-Dec-05 09:39 288 1.1
2019-Dec-05 09:34 288 0 gusting 2 1.1
2019-Dec-05 09:29 288 1.7
2019-Dec-05 09:24 288 0 gusting 2 1.7
2019-Dec-05 09:19 288 0 gusting 2 1.7
2019-Dec-05 09:14 288 1.1
2019-Dec-05 09:09 288 1.1
2019-Dec-05 09:04 288 1.1
2019-Dec-05 08:59 288 1.1
2019-Dec-05 08:54 288 1.1
2019-Dec-05 08:49 288 1.1
2019-Dec-05 08:44 288 1.1
2019-Dec-05 08:39 288 1.1
2019-Dec-05 08:34 288 1.1
2019-Dec-05 08:29 288 1.1
2019-Dec-05 08:24 288 1.1
2019-Dec-05 08:19 288 1.1
2019-Dec-05 08:14 288 1.7
2019-Dec-05 08:09 288 1.7
2019-Dec-05 08:04 288 1.7
2019-Dec-05 07:59 288 1.7
2019-Dec-05 07:54 288 0 gusting 2 1.7
2019-Dec-05 07:49 288 2.2
2019-Dec-05 07:44 288 0 gusting 2 2.2
2019-Dec-05 07:39 288 0 gusting 1 2.2
2019-Dec-05 07:34 288 0 gusting 4 2.2
2019-Dec-05 07:29 288 2 gusting 5 2.2
2019-Dec-05 07:24 290 0 gusting 4 2.2
2019-Dec-05 07:19 290 0 gusting 4 2.2
2019-Dec-05 07:14 290 0 gusting 6 2.2
2019-Dec-05 07:09 296 1 gusting 5 2.2
2019-Dec-05 07:04 296 0 gusting 2 2.2
2019-Dec-05 06:59 296 1 gusting 5 2.2
2019-Dec-05 06:54 296 0 gusting 4 2.2
2019-Dec-05 06:49 296 0 gusting 1 2.2
2019-Dec-05 06:44 296 0 gusting 2 2.2
2019-Dec-05 06:39 296 2.2
2019-Dec-05 06:34 296 2.2
2019-Dec-05 06:29 296 2.2
2019-Dec-05 06:24 296 2.2
2019-Dec-05 06:19 296 2.2
2019-Dec-05 06:14 296 2.2
2019-Dec-05 06:09 296 2.2
2019-Dec-05 06:04 296 2.2
2019-Dec-05 05:59 296 2.2
2019-Dec-05 05:54 296 2.2
2019-Dec-05 05:49 296 2.2
2019-Dec-05 05:44 296 2.2
2019-Dec-05 05:39 296 2.2
2019-Dec-05 05:34 296 2.2
2019-Dec-05 05:29 296 2.2
2019-Dec-05 05:24 296 0 gusting 1 2.2
2019-Dec-05 05:19 296 2.2
2019-Dec-05 05:14 296 2.2
2019-Dec-05 05:09 296 2.2
2019-Dec-05 05:04 296 2.2
2019-Dec-05 04:59 296 2.2
2019-Dec-05 04:54 296 2.2
2019-Dec-05 04:49 296 2.2
2019-Dec-05 04:44 296 0 gusting 4 2.2
2019-Dec-05 04:39 296 0 gusting 2 2.2
2019-Dec-05 04:34 296 2.2
2019-Dec-05 04:29 296 2.2
2019-Dec-05 04:24 296 1.7
2019-Dec-05 04:19 296 1.7
2019-Dec-05 04:14 296 1.7
2019-Dec-05 04:09 296 0 gusting 1 1.7
2019-Dec-05 04:04 296 1.7
2019-Dec-05 03:59 296 1.7
2019-Dec-05 03:54 296 0 gusting 2 1.7
2019-Dec-05 03:49 296 1.1
2019-Dec-05 03:44 296 1.1
2019-Dec-05 03:39 296 1.1
2019-Dec-05 03:34 296 1.1
2019-Dec-05 03:29 296 1.7
2019-Dec-05 03:24 296 1.7
2019-Dec-05 03:19 296 1.7
2019-Dec-05 03:14 296 1.7
2019-Dec-05 03:09 296 1.7
2019-Dec-05 03:04 296 1.7
2019-Dec-05 02:59 296 1.7
2019-Dec-05 02:54 296 1.7
2019-Dec-05 02:49 296 1.7
2019-Dec-05 02:44 296 0 gusting 2 1.7
2019-Dec-05 02:39 296 1.7
2019-Dec-05 02:34 296 1.7
2019-Dec-05 02:29 296 1.7
2019-Dec-05 02:24 296 1.7
2019-Dec-05 02:19 296 0 gusting 2 1.7
2019-Dec-05 02:14 296 1.7
2019-Dec-05 02:09 296 2.2
2019-Dec-05 02:04 296 2.2
2019-Dec-05 01:59 296 2.2
2019-Dec-05 01:54 296 2.2
2019-Dec-05 01:49 296 2.2
2019-Dec-05 01:44 296 2.2
2019-Dec-05 01:39 296 2.2
2019-Dec-05 01:34 296 2.2
2019-Dec-05 01:29 296 2.2
2019-Dec-05 01:24 296 2.2
2019-Dec-05 01:19 296 2.8
2019-Dec-05 01:14 296 0 gusting 2 2.8
2019-Dec-05 01:09 296 0 gusting 2 2.8
2019-Dec-05 01:04 296 2.8
2019-Dec-05 00:59 296 2.8
2019-Dec-05 00:54 296 2.8
2019-Dec-05 00:49 296 2.8
2019-Dec-05 00:44 296 0 gusting 2 2.8
2019-Dec-05 00:39 296 0 gusting 2 2.8
2019-Dec-05 00:34 296 2.8
2019-Dec-05 00:29 296 0 gusting 5 2.8
2019-Dec-05 00:24 296 0 gusting 4 2.2
2019-Dec-05 00:19 297 0 gusting 2 2.2
2019-Dec-05 00:14 297 0 gusting 2 2.2
2019-Dec-05 00:09 297 2.2
2019-Dec-05 00:04 297 2.2
2019-Dec-04 23:59 297 0 gusting 1 2.2
2019-Dec-04 23:54 297 2.2
2019-Dec-04 23:49 297 2.8
2019-Dec-04 23:44 297 2.8
2019-Dec-04 23:39 297 2.8
2019-Dec-04 23:34 296 0 gusting 1 2.8
2019-Dec-04 23:29 297 2.8
2019-Dec-04 23:24 297 2.8
2019-Dec-04 23:19 297 0 gusting 4 2.8
2019-Dec-04 23:14 297 0 gusting 1 2.8
2019-Dec-04 23:09 297 2.8
2019-Dec-04 23:04 297 2.8
2019-Dec-04 22:59 297 0 gusting 4 2.8
2019-Dec-04 22:54 296 2.8
2019-Dec-04 22:49 296 0 gusting 4 3.3
2019-Dec-04 22:44 297 0 gusting 2 3.3
2019-Dec-04 22:39 297 3.3
2019-Dec-04 22:34 297 0 gusting 2 3.3
2019-Dec-04 22:29 297 1 gusting 2 3.3
2019-Dec-04 22:24 297 0 gusting 2 3.3
2019-Dec-04 22:19 297 0 gusting 2 3.3
2019-Dec-04 22:14 297 0 gusting 2 3.3
2019-Dec-04 22:09 297 3.3
2019-Dec-04 22:04 297 0 gusting 2 3.3
2019-Dec-04 21:59 297 0 gusting 4 3.3
2019-Dec-04 21:54 297 0 gusting 5 3.3
2019-Dec-04 21:49 296 0 gusting 2 3.3
2019-Dec-04 21:44 297 3.3
2019-Dec-04 21:39 297 3.3
2019-Dec-04 21:34 297 2 gusting 6 3.3
2019-Dec-04 21:29 306 1 gusting 5 3.3
2019-Dec-04 21:24 307 2 gusting 4 3.3
2019-Dec-04 21:19 307 0 gusting 4 3.3
2019-Dec-04 21:14 307 0 gusting 2 3.3
2019-Dec-04 21:09 307 1 gusting 6 3.3
2019-Dec-04 21:04 308 1 gusting 5 3.3
2019-Dec-04 20:59 308 3.3
2019-Dec-04 20:54 308 1 gusting 5 3.3
2019-Dec-04 20:49 308 3.3
2019-Dec-04 20:44 308 2 gusting 4 3.3
2019-Dec-04 20:39 308 2 gusting 6 3.3
2019-Dec-04 20:34 307 1 gusting 4 3.3
2019-Dec-04 20:29 308 2 gusting 5 3.3
2019-Dec-04 20:24 308 0 gusting 5 3.3
2019-Dec-04 20:19 308 2 gusting 6 3.9
2019-Dec-04 20:14 308 2 gusting 4 3.9
2019-Dec-04 20:09 309 2 gusting 6 3.9
2019-Dec-04 20:04 303 2 gusting 8 3.9
2019-Dec-04 19:59 300 3 gusting 6 3.9
2019-Dec-04 19:54 280 2 gusting 6 3.9
2019-Dec-04 19:49 284 2 gusting 8 3.9
2019-Dec-04 19:44 288 0 gusting 6 3.9
2019-Dec-04 19:39 300 2 gusting 8 3.9
2019-Dec-04 19:34 304 2 gusting 6 3.9
2019-Dec-04 19:29 310 2 gusting 6 3.9
2019-Dec-04 19:24 313 1 gusting 5 3.9
2019-Dec-04 19:19 313 1 gusting 4 3.9
2019-Dec-04 19:14 313 0 gusting 5 3.9
2019-Dec-04 19:09 313 1 gusting 5 3.9
2019-Dec-04 19:04 315 3 gusting 6 3.9
2019-Dec-04 18:59 296 3 gusting 6 3.9
2019-Dec-04 18:54 280 1 gusting 4 3.9
2019-Dec-04 18:49 280 0 gusting 5 3.3
2019-Dec-04 18:44 260 4 gusting 7 3.3
2019-Dec-04 18:39 301 5 gusting 8 3.3
2019-Dec-04 18:34 286 4 gusting 10 3.9
2019-Dec-04 18:29 276 1 gusting 7 3.9
2019-Dec-04 18:24 300 4 gusting 7 3.9
2019-Dec-04 18:19 296 2 gusting 8 3.9
2019-Dec-04 18:14 300 2 gusting 7 3.9
2019-Dec-04 18:09 294 2 gusting 7 3.9
2019-Dec-04 18:04 257 2 gusting 4 3.9
2019-Dec-04 17:59 257 2 gusting 5 3.9
2019-Dec-04 17:54 249 1 gusting 4 3.9
2019-Dec-04 17:49 248 1 gusting 8 3.9
2019-Dec-04 17:44 292 2 gusting 6 3.9
2019-Dec-04 17:39 299 4 gusting 6 3.9
2019-Dec-04 17:34 300 3 gusting 7 3.9
2019-Dec-04 17:29 301 2 gusting 6 3.9
2019-Dec-04 17:24 302 1 gusting 4 3.9
2019-Dec-04 17:19 302 4 gusting 6 3.9
2019-Dec-04 17:14 298 5 gusting 8 3.9
2019-Dec-04 17:09 296 3 gusting 7 3.9
2019-Dec-04 17:04 252 4 gusting 7 3.9
2019-Dec-04 16:59 299 2 gusting 6 3.9
2019-Dec-04 16:54 299 2 gusting 6 3.9
2019-Dec-04 16:49 296 1 gusting 7 3.9
2019-Dec-04 16:44 298 2 gusting 6 3.9
2019-Dec-04 16:39 302 3 gusting 7 3.9
2019-Dec-04 16:34 289 2 gusting 7 3.9
2019-Dec-04 16:29 294 2 gusting 5 3.9
2019-Dec-04 16:24 288 1 gusting 8 3.9
2019-Dec-04 16:19 280 3 gusting 6 3.9
2019-Dec-04 16:14 293 1 gusting 4 3.9
2019-Dec-04 16:09 293 2 gusting 6 3.9
2019-Dec-04 16:04 288 1 gusting 5 3.9
2019-Dec-04 15:59 287 1 gusting 4 3.3
2019-Dec-04 15:54 288 1 gusting 6 3.3
2019-Dec-04 15:49 288 0 gusting 2 3.3
2019-Dec-04 15:44 288 3.3
2019-Dec-04 15:39 288 2 gusting 6 3.3
2019-Dec-04 15:34 284 2 gusting 5 3.3
2019-Dec-04 15:29 285 1 gusting 5 3.3
2019-Dec-04 15:24 284 1 gusting 4 2.8
2019-Dec-04 15:19 283 2 gusting 6 2.8
2019-Dec-04 15:14 311 1 gusting 5 2.8
2019-Dec-04 15:09 311 0 gusting 5 2.8
2019-Dec-04 15:04 311 1 gusting 4 2.8
2019-Dec-04 14:59 311 0 gusting 2 2.8
2019-Dec-04 14:54 311 1 gusting 5 2.8
2019-Dec-04 14:49 313 0 gusting 5 2.2
2019-Dec-04 14:44 313 1 gusting 4 2.2
2019-Dec-04 14:39 313 1 gusting 4 2.2
2019-Dec-04 14:34 313 0 gusting 4 2.2
2019-Dec-04 14:29 313 0 gusting 4 2.2
2019-Dec-04 14:24 313 2.2
2019-Dec-04 14:19 313 0 gusting 5 1.7
2019-Dec-04 14:14 313 1.7
2019-Dec-04 14:09 313 0 gusting 4 1.7
2019-Dec-04 14:04 313 0 gusting 4 1.7
2019-Dec-04 13:59 313 0 gusting 4 1.1
2019-Dec-04 13:54 313 0 gusting 2 1.1
2019-Dec-04 13:49 313 0 gusting 2 1.1
2019-Dec-04 13:44 313 1.1
2019-Dec-04 13:39 313 0 gusting 4 1.1
2019-Dec-04 13:34 313 0 gusting 2 1.1
2019-Dec-04 13:29 313 0.6
2019-Dec-04 13:24 313 0.6
2019-Dec-04 13:19 313 0.6
2019-Dec-04 13:14 313 0.6
2019-Dec-04 13:09 313 0.6
2019-Dec-04 13:04 313 0.6
2019-Dec-04 12:59 313 0 gusting 1 -0.0
2019-Dec-04 12:54 313 -0.0
2019-Dec-04 12:49 313 -0.0
2019-Dec-04 12:44 313 -0.0
2019-Dec-04 12:39 313 -0.0
2019-Dec-04 12:34 313 -0.0
2019-Dec-04 12:29 313 -0.0
2019-Dec-04 12:24 313 -0.0
2019-Dec-04 12:19 313 -0.0
2019-Dec-04 12:14 313 -0.0
2019-Dec-04 12:09 313 -0.0
2019-Dec-04 12:04 313 0 gusting 4 -0.0
2019-Dec-04 11:59 313 -0.0
2019-Dec-04 11:54 313 -0.0
2019-Dec-04 11:49 313 -0.0
2019-Dec-04 11:44 313 -0.0
2019-Dec-04 11:39 313 -0.0
2019-Dec-04 11:34 313 -0.0
2019-Dec-04 11:29 313 -0.0
2019-Dec-04 11:24 313 -0.0
2019-Dec-04 11:19 313 1 gusting 5 -0.0
2019-Dec-04 11:14 313 -0.0
2019-Dec-04 11:09 313 -0.0
2019-Dec-04 11:04 313 -0.0
2019-Dec-04 10:59 313 -0.0
2019-Dec-04 10:54 313 -0.0
2019-Dec-04 10:49 313 0.6
2019-Dec-04 10:44 313 0.6
2019-Dec-04 10:39 313 0.6
2019-Dec-04 10:34 313 0.6
2019-Dec-04 10:29 313 0.6
2019-Dec-04 10:24 313 1.1
2019-Dec-04 10:19 313 1.1
2019-Dec-04 10:14 313 1.1
2019-Dec-04 10:09 313 1.1
2019-Dec-04 10:04 313 1.1
2019-Dec-04 09:59 313 1.1
2019-Dec-04 09:54 313 1.1
2019-Dec-04 09:49 313 1.1
2019-Dec-04 09:44 313 1.1
2019-Dec-04 09:39 313 1.1
2019-Dec-04 09:34 313 1.1
2019-Dec-04 09:29 313 1 gusting 5 1.1
2019-Dec-04 09:24 314 1.1
2019-Dec-04 09:19 314 0 gusting 2 1.1
2019-Dec-04 09:14 314 2 gusting 5 1.1
2019-Dec-04 09:09 314 2 gusting 4 1.1
2019-Dec-04 09:04 314 0 gusting 5 1.1
2019-Dec-04 08:59 311 1 gusting 2 1.1
2019-Dec-04 08:54 311 1 gusting 4 1.1
2019-Dec-04 08:49 311 0 gusting 2 0.6
2019-Dec-04 08:44 311 2 gusting 6 0.6
2019-Dec-04 08:39 313 0 gusting 4 0.6
2019-Dec-04 08:34 313 0.6
2019-Dec-04 08:29 309 0 gusting 1 0.6
2019-Dec-04 08:24 309 0.6
2019-Dec-04 08:19 309 0 gusting 2 0.6
2019-Dec-04 08:14 309 0.6
2019-Dec-04 08:09 309 1 gusting 4 0.6
2019-Dec-04 08:04 309 1 gusting 4 0.6
2019-Dec-04 07:59 310 1 gusting 4 0.6
2019-Dec-04 07:54 310 -0.0
2019-Dec-04 07:49 310 -0.0
2019-Dec-04 07:44 308 1 gusting 4 -0.6
2019-Dec-04 07:39 308 -0.6
2019-Dec-04 07:34 308 0 gusting 2 -0.6
2019-Dec-04 07:29 308 -0.6
2019-Dec-04 07:24 308 0 gusting 1 -0.6
2019-Dec-04 07:19 308 -0.6
2019-Dec-04 07:14 308 -0.6
2019-Dec-04 07:09 308 -0.6
2019-Dec-04 07:04 308 -0.0
2019-Dec-04 06:59 308 1 gusting 4 -0.0
2019-Dec-04 06:54 308 0 gusting 2 -0.0
2019-Dec-04 06:49 308 2 gusting 4 -0.0
2019-Dec-04 06:44 308 0 gusting 1 -0.0
2019-Dec-04 06:39 308 0 gusting 19 -0.0
2019-Dec-04 06:34 308 0 gusting 4 -0.0
2019-Dec-04 06:29 308 1 gusting 5 -0.0
2019-Dec-04 06:24 302 1 gusting 4 -0.0
2019-Dec-04 06:19 302 1 gusting 5 -0.0
2019-Dec-04 06:14 302 2 gusting 5 -0.0
2019-Dec-04 06:09 302 2 gusting 5 -0.0
2019-Dec-04 06:04 302 2 gusting 6 0.6
2019-Dec-04 05:59 295 2 gusting 10 0.6
2019-Dec-04 05:54 300 2 gusting 6 0.6
2019-Dec-04 05:49 300 4 gusting 10 0.6
2019-Dec-04 05:44 300 2 gusting 6 -0.0
2019-Dec-04 05:39 292 4 gusting 8 -0.0
2019-Dec-04 05:34 304 4 gusting 7 -0.0
2019-Dec-04 05:29 317 1 gusting 4 -0.6
2019-Dec-04 05:24 317 0 gusting 5 -0.6
2019-Dec-04 05:19 319 0 gusting 2 -0.6
2019-Dec-04 05:14 319 0 gusting 2 -0.6
2019-Dec-04 05:09 319 0 gusting 2 -1.1
2019-Dec-04 05:04 319 -0.6
2019-Dec-04 04:59 319 -0.6
2019-Dec-04 04:54 319 -0.6
2019-Dec-04 04:49 319 -0.6
2019-Dec-04 04:44 319 -0.0
2019-Dec-04 04:39 317 -0.0
2019-Dec-04 04:34 318 1 gusting 5 -0.0
2019-Dec-04 04:29 319 1 gusting 6 -0.0
2019-Dec-04 04:24 297 1 gusting 6 -0.0
2019-Dec-04 04:19 297 2 gusting 4 -0.0
2019-Dec-04 04:14 297 2 gusting 4 -0.0
2019-Dec-04 04:09 297 1 gusting 4 -0.0
2019-Dec-04 04:04 297 1 gusting 5 0.6
2019-Dec-04 03:59 297 1 gusting 5 0.6
2019-Dec-04 03:54 297 4 gusting 8 0.6
2019-Dec-04 03:49 308 0 gusting 6 0.6
2019-Dec-04 03:44 303 4 gusting 10 0.6
2019-Dec-04 03:39 298 3 gusting 10 0.6
2019-Dec-04 03:34 298 2 gusting 6 0.6
2019-Dec-04 03:29 300 1 gusting 5 0.6
2019-Dec-04 03:24 300 2 gusting 6 0.6
2019-Dec-04 03:19 296 3 gusting 6 0.6
2019-Dec-04 03:14 286 1 gusting 7 1.1
2019-Dec-04 03:09 327 3 gusting 10 1.1
2019-Dec-04 03:04 304 4 gusting 7 1.1
2019-Dec-04 02:59 298 5 gusting 10 1.1
2019-Dec-04 02:54 303 5 gusting 10 0.6
2019-Dec-04 02:49 281 5 gusting 7 0.6
2019-Dec-04 02:44 294 2 gusting 6 0.6
2019-Dec-04 02:39 296 2 gusting 6 0.6
2019-Dec-04 02:34 296 3 gusting 7 0.6
2019-Dec-04 02:29 309 4 gusting 7 0.6
2019-Dec-04 02:24 304 2 gusting 8 0.6
2019-Dec-04 02:19 305 2 gusting 5 0.6
2019-Dec-04 02:14 313 1 gusting 5 0.6
2019-Dec-04 02:09 313 0 gusting 5 0.6
2019-Dec-04 02:04 313 1 gusting 5 1.1
2019-Dec-04 01:59 313 3 gusting 6 1.1
2019-Dec-04 01:54 340 2 gusting 6 1.1
2019-Dec-04 01:49 306 2 gusting 6 1.1
2019-Dec-04 01:44 305 3 gusting 6 1.1
2019-Dec-04 01:39 357 5 gusting 11 1.1
2019-Dec-04 01:34 304 4 gusting 6 1.1
2019-Dec-04 01:29 312 2 gusting 7 1.1
2019-Dec-04 01:24 311 3 gusting 6 1.1
2019-Dec-04 01:19 345 2 gusting 6 1.1
2019-Dec-04 01:14 352 2 gusting 5 1.1
2019-Dec-04 01:09 306 4 gusting 8 1.1
2019-Dec-04 01:04 308 4 gusting 10 1.1
2019-Dec-04 00:59 307 4 gusting 8 1.1
2019-Dec-04 00:54 297 6 gusting 13 1.1
2019-Dec-04 00:49 301 5 gusting 7 1.1
2019-Dec-04 00:44 315 4 gusting 8 1.1
2019-Dec-04 00:39 313 3 gusting 8 1.1
2019-Dec-04 00:34 305 4 gusting 12 1.1
2019-Dec-04 00:29 294 6 gusting 10 1.7
2019-Dec-04 00:24 292 6 gusting 15 1.1
2019-Dec-04 00:19 299 6 gusting 11 1.7
2019-Dec-04 00:14 308 6 gusting 10 1.7
2019-Dec-04 00:09 312 5 gusting 11 1.7
2019-Dec-04 00:04 308 4 gusting 13 1.7
2019-Dec-03 23:59 304 6 gusting 10 1.7
2019-Dec-03 23:54 293 6 gusting 12 1.7
2019-Dec-03 23:49 291 4 gusting 11 1.7
2019-Dec-03 23:44 296 6 gusting 10 2.2
2019-Dec-03 23:39 297 6 gusting 10 2.2
2019-Dec-03 23:34 314 2 gusting 10 2.2
2019-Dec-03 23:29 299 5 gusting 12 2.2
2019-Dec-03 23:24 295 6 gusting 10 2.2
2019-Dec-03 23:19 308 4 gusting 13 2.2
2019-Dec-03 23:14 298 6 gusting 10 2.2
2019-Dec-03 23:09 293 4 gusting 11 2.2
2019-Dec-03 23:04 304 6 gusting 11 2.2
2019-Dec-03 22:59 288 5 gusting 10 2.2
2019-Dec-03 22:54 318 5 gusting 10 2.2
2019-Dec-03 22:49 304 4 gusting 10 2.2
2019-Dec-03 22:44 314 4 gusting 8 2.2
2019-Dec-03 22:39 309 5 gusting 10 2.2
2019-Dec-03 22:34 301 4 gusting 7 2.2
2019-Dec-03 22:29 292 3 gusting 7 2.2
2019-Dec-03 22:24 281 4 gusting 8 2.2
2019-Dec-03 22:19 303 3 gusting 10 2.2
2019-Dec-03 22:14 294 4 gusting 10 2.2
2019-Dec-03 22:09 315 6 gusting 10 2.2
2019-Dec-03 22:04 292 5 gusting 10 2.2